createdAt,value
2019-05-20T00:01:51.318Z,7.90
2019-05-20T00:04:33.320Z,9.30
2019-05-20T00:07:08.183Z,8.20
2019-05-20T00:09:50.163Z,8.13
2019-05-20T00:12:24.973Z,7.00
2019-05-20T00:15:06.679Z,10.00
2019-05-20T00:17:41.732Z,7.80
2019-05-20T00:20:29.452Z,8.40
2019-05-20T00:23:11.647Z,9.37
2019-05-20T00:26:00.122Z,10.20
2019-05-20T00:28:47.762Z,9.10
2019-05-20T00:31:29.458Z,10.73
2019-05-20T00:34:17.328Z,10.67
2019-05-20T00:36:59.002Z,10.63
2019-05-20T00:39:46.507Z,11.00
2019-05-20T00:42:21.243Z,11.27
2019-05-20T00:45:03.313Z,11.60
2019-05-20T00:47:37.848Z,11.30
2019-05-20T00:50:20.285Z,11.63
2019-05-20T00:52:48.833Z,14.70
2019-05-20T00:55:32.129Z,12.23
2019-05-20T00:58:00.750Z,12.73
2019-05-20T01:00:36.233Z,13.13
2019-05-20T01:03:04.788Z,12.47
2019-05-20T01:05:39.871Z,13.63
2019-05-20T01:08:08.353Z,14.80
2019-05-20T01:10:43.796Z,13.70
2019-05-20T01:13:12.280Z,15.90
2019-05-20T01:15:47.847Z,16.60
2019-05-20T01:18:35.844Z,16.63
2019-05-20T01:21:24.261Z,17.53
2019-05-20T01:23:59.805Z,20.00
2019-05-20T01:26:41.224Z,20.33
2019-05-20T01:29:16.181Z,21.37
2019-05-20T01:31:57.893Z,20.37
2019-05-20T01:34:33.648Z,22.97
2019-05-20T01:37:15.263Z,22.13
2019-05-20T01:39:50.516Z,21.70
2019-05-20T01:42:32.257Z,24.73
2019-05-20T01:45:07.407Z,21.87
2019-05-20T01:47:49.283Z,24.80
2019-05-20T01:50:31.463Z,24.30
2019-05-20T01:53:06.295Z,24.30
2019-05-20T01:55:47.991Z,24.27
2019-05-20T01:58:22.705Z,25.50
2019-05-20T02:01:05.035Z,26.53
2019-05-20T02:03:39.623Z,24.00
2019-05-20T02:06:21.041Z,25.40
2019-05-20T02:08:55.826Z,23.00
2019-05-20T02:11:38.190Z,25.60
2019-05-20T02:14:21.561Z,23.97
2019-05-20T02:17:03.857Z,24.20
2019-05-20T02:19:45.588Z,24.47
2019-05-20T02:22:33.787Z,25.50
2019-05-20T02:25:09.106Z,24.20
2019-05-20T02:27:50.667Z,22.27
2019-05-20T02:30:26.322Z,25.73
2019-05-20T02:33:09.683Z,22.70
2019-05-20T02:35:45.199Z,21.87
2019-05-20T02:38:27.286Z,22.40
2019-05-20T02:41:02.861Z,21.30
2019-05-20T02:43:44.632Z,20.67
2019-05-20T02:46:26.928Z,21.97
2019-05-20T02:49:02.667Z,20.57
2019-05-20T02:51:45.050Z,19.80
2019-05-20T02:54:20.739Z,19.17
2019-05-20T02:57:03.401Z,18.57
2019-05-20T02:59:38.441Z,19.47
2019-05-20T03:02:20.393Z,18.80
2019-05-20T03:04:54.993Z,17.70
2019-05-20T03:07:36.723Z,17.90
2019-05-20T03:10:13.637Z,17.10
2019-05-20T03:12:55.547Z,18.57
2019-05-20T03:15:30.604Z,16.60
2019-05-20T03:18:12.532Z,16.37
2019-05-20T03:20:54.139Z,16.73
2019-05-20T03:23:36.368Z,16.30
2019-05-20T03:26:10.981Z,15.83
2019-05-20T03:28:52.618Z,16.07
2019-05-20T03:31:21.109Z,17.03
2019-05-20T03:33:56.818Z,15.63
2019-05-20T03:36:25.424Z,16.50
2019-05-20T03:39:07.526Z,18.87
2019-05-20T03:41:36.157Z,17.17
2019-05-20T03:44:11.372Z,17.00
2019-05-20T03:46:39.915Z,15.60
2019-05-20T03:49:15.015Z,14.83
2019-05-20T03:51:43.559Z,15.10
2019-05-20T03:54:18.872Z,16.13
2019-05-20T03:56:47.447Z,18.53
2019-05-20T03:59:23.189Z,17.87
2019-05-20T04:01:51.744Z,18.17
2019-05-20T04:04:26.469Z,16.77
2019-05-20T04:06:55.081Z,18.60
2019-05-20T04:09:30.320Z,18.17
2019-05-20T04:11:58.802Z,17.90
2019-05-20T04:14:33.545Z,15.00
2019-05-20T04:17:02.110Z,16.80
2019-05-20T04:19:36.873Z,16.67
2019-05-20T04:22:12.369Z,16.03
2019-05-20T04:24:54.038Z,15.50
2019-05-20T04:27:29.049Z,16.17
2019-05-20T04:30:10.522Z,16.33
2019-05-20T04:32:45.296Z,15.40
2019-05-20T04:35:27.918Z,14.90
2019-05-20T04:38:02.476Z,14.63
2019-05-20T04:40:50.924Z,14.40
2019-05-20T04:43:32.526Z,15.23
2019-05-20T04:46:07.962Z,15.27
2019-05-20T04:48:49.458Z,16.33
2019-05-20T04:51:24.292Z,13.10
2019-05-20T04:54:05.862Z,15.37
2019-05-20T04:56:41.536Z,14.30
2019-05-20T04:59:22.978Z,14.97
2019-05-20T05:01:57.618Z,14.07
2019-05-20T05:04:39.527Z,13.80
2019-05-20T05:07:14.740Z,15.20
2019-05-20T05:09:56.057Z,15.70
2019-05-20T05:12:31.176Z,14.47
2019-05-20T05:15:12.856Z,16.23
2019-05-20T05:17:47.535Z,15.20
2019-05-20T05:20:29.259Z,16.00
2019-05-20T05:23:10.467Z,14.40
2019-05-20T05:25:52.658Z,14.50
2019-05-20T05:28:29.666Z,13.60
2019-05-20T05:31:12.059Z,13.70
2019-05-20T05:33:47.135Z,13.57
2019-05-20T05:36:28.758Z,13.80
2019-05-20T05:39:18.610Z,13.23
2019-05-20T05:41:54.370Z,14.00
2019-05-20T05:44:35.898Z,14.20
2019-05-20T05:47:10.522Z,13.80
2019-05-20T05:49:52.471Z,12.47
2019-05-20T05:52:27.961Z,12.70
2019-05-20T05:55:10.291Z,12.07
2019-05-20T05:57:45.531Z,13.87
2019-05-20T06:00:27.521Z,12.63
2019-05-20T06:03:02.436Z,13.57
2019-05-20T06:05:44.637Z,12.57
2019-05-20T06:08:20.156Z,12.27
2019-05-20T06:11:02.165Z,12.53
2019-05-20T06:13:36.866Z,12.37
2019-05-20T06:16:35.403Z,12.00
2019-05-20T06:18:55.779Z,11.17
2019-05-20T06:21:38.036Z,11.13
2019-05-20T06:24:20.569Z,11.13
2019-05-20T06:27:08.969Z,10.83
2019-05-20T06:29:51.619Z,10.53
2019-05-20T06:32:39.923Z,10.20
2019-05-20T06:35:28.561Z,9.43
2019-05-20T06:38:11.960Z,9.60
2019-05-20T06:41:00.114Z,9.17
2019-05-20T06:43:35.519Z,7.77
2019-05-20T06:46:17.668Z,7.60
2019-05-20T06:48:52.647Z,9.23
2019-05-20T06:51:34.646Z,7.50
2019-05-20T06:54:10.127Z,7.40
2019-05-20T06:56:51.863Z,7.73
2019-05-20T06:59:27.368Z,7.37
2019-05-20T07:02:09.181Z,8.63
2019-05-20T07:04:44.382Z,7.97
2019-05-20T07:07:26.766Z,8.30
2019-05-20T07:10:01.291Z,9.63
2019-05-20T07:12:42.983Z,10.03
2019-05-20T07:15:18.883Z,10.63
2019-05-20T07:18:00.708Z,11.00
2019-05-20T07:20:42.729Z,11.70
2019-05-20T07:23:18.265Z,12.13
2019-05-20T07:26:06.662Z,11.13
2019-05-20T07:28:48.251Z,11.53
2019-05-20T07:31:37.127Z,10.80
2019-05-20T07:34:19.576Z,10.60
2019-05-20T07:37:08.740Z,11.17
2019-05-20T07:39:50.238Z,9.47
2019-05-20T07:42:31.999Z,10.53
2019-05-20T07:45:07.131Z,11.60
2019-05-20T07:47:48.905Z,9.23
2019-05-20T07:50:24.543Z,9.70
2019-05-20T07:53:06.231Z,10.07
2019-05-20T07:55:44.700Z,10.13
2019-05-20T07:58:28.414Z,10.13
2019-05-20T08:01:10.825Z,9.27
2019-05-20T08:03:46.292Z,9.73
2019-05-20T08:06:27.971Z,9.03
2019-05-20T08:09:04.578Z,8.67
2019-05-20T08:11:46.229Z,8.77
2019-05-20T08:14:21.077Z,8.17
2019-05-20T08:17:02.834Z,8.40
2019-05-20T08:19:38.276Z,8.27
2019-05-20T08:22:20.320Z,7.37
2019-05-20T08:25:01.570Z,8.23
2019-05-20T08:27:49.930Z,9.13
2019-05-20T08:30:40.939Z,8.50
2019-05-20T08:33:29.644Z,9.77
2019-05-20T08:36:10.629Z,8.87
2019-05-20T08:38:59.083Z,9.73
2019-05-20T08:41:34.720Z,9.73
2019-05-20T08:44:16.381Z,9.33
2019-05-20T08:46:57.863Z,10.33
2019-05-20T08:49:32.709Z,9.50
2019-05-20T08:52:14.981Z,9.50
2019-05-20T08:54:49.667Z,9.90
2019-05-20T08:57:31.444Z,10.20
2019-05-20T09:00:06.261Z,8.53
2019-05-20T09:02:48.146Z,8.90
2019-05-20T09:05:23.487Z,10.27
2019-05-20T09:08:05.711Z,10.90
2019-05-20T09:10:41.506Z,11.57
2019-05-20T09:13:22.724Z,10.03
2019-05-20T09:15:57.936Z,9.50
2019-05-20T09:18:39.637Z,10.20
2019-05-20T09:21:15.520Z,9.73
2019-05-20T09:23:57.383Z,9.50
2019-05-20T09:26:39.016Z,10.60
2019-05-20T09:29:27.621Z,10.77
2019-05-20T09:32:16.905Z,12.00
2019-05-20T09:34:58.605Z,10.90
2019-05-20T09:37:46.116Z,11.90
2019-05-20T09:40:44.623Z,9.37
2019-05-20T09:43:26.647Z,13.90
2019-05-20T09:46:07.475Z,12.87
2019-05-20T09:48:45.175Z,14.43
2019-05-20T09:51:20.014Z,14.10
2019-05-20T09:54:02.139Z,14.63
2019-05-20T09:56:39.781Z,13.90
2019-05-20T09:59:22.206Z,12.23
2019-05-20T10:01:57.916Z,12.20
2019-05-20T10:04:39.688Z,11.93
2019-05-20T10:07:14.941Z,11.37
2019-05-20T10:09:57.017Z,11.10
2019-05-20T10:12:45.927Z,10.87
2019-05-20T10:15:15.961Z,10.50
2019-05-20T10:17:57.541Z,10.43
2019-05-20T10:20:32.342Z,12.20
2019-05-20T10:23:15.896Z,9.63
2019-05-20T10:25:51.498Z,8.40
2019-05-20T10:28:33.013Z,8.17
2019-05-20T10:31:07.843Z,7.63
2019-05-20T10:33:49.412Z,7.77
2019-05-20T10:36:24.943Z,7.53
2019-05-20T10:39:07.846Z,7.60
2019-05-20T10:41:49.941Z,6.83
2019-05-20T10:44:32.246Z,5.70
2019-05-20T10:47:06.903Z,5.80
2019-05-20T10:49:49.070Z,6.43
2019-05-20T10:52:24.736Z,6.27
2019-05-20T10:55:06.349Z,6.10
2019-05-20T10:57:41.357Z,5.50
2019-05-20T11:00:23.389Z,5.83
2019-05-20T11:02:58.338Z,4.97
2019-05-20T11:05:40.483Z,4.40
2019-05-20T11:08:22.775Z,3.90
2019-05-20T11:10:58.189Z,4.90
2019-05-20T11:13:40.448Z,4.53
2019-05-20T11:16:15.163Z,4.70
2019-05-20T11:18:56.701Z,4.30
2019-05-20T11:21:31.440Z,4.67
2019-05-20T11:24:13.658Z,4.00
2019-05-20T11:27:01.190Z,4.20
2019-05-20T11:29:48.790Z,3.70
2019-05-20T11:32:23.779Z,3.60
2019-05-20T11:35:05.484Z,3.50
2019-05-20T11:37:40.416Z,3.10
2019-05-20T11:40:23.879Z,3.30
2019-05-20T11:42:52.405Z,3.70
2019-05-20T11:45:28.160Z,4.10
2019-05-20T11:47:56.711Z,4.00
2019-05-20T11:50:32.238Z,5.77
2019-05-20T11:53:01.221Z,4.87
2019-05-20T11:55:36.317Z,5.10
2019-05-20T11:58:15.465Z,4.70
2019-05-20T12:00:41.719Z,4.50
2019-05-20T12:03:10.286Z,4.23
2019-05-20T12:05:45.546Z,4.00
2019-05-20T12:08:16.194Z,4.23
2019-05-20T12:10:51.654Z,3.70
2019-05-20T12:13:20.504Z,4.30
2019-05-20T12:15:58.157Z,4.13
2019-05-20T12:18:26.670Z,4.87
2019-05-20T12:21:01.457Z,3.50
2019-05-20T12:23:29.979Z,3.77
2019-05-20T12:26:05.246Z,2.97
2019-05-20T12:28:40.192Z,2.50
2019-05-20T12:31:21.886Z,2.20
2019-05-20T12:34:03.402Z,2.20
2019-05-20T12:36:38.317Z,2.37
2019-05-20T12:39:21.026Z,2.73
2019-05-20T12:42:02.992Z,2.80
2019-05-20T12:44:44.850Z,2.80
2019-05-20T12:47:19.486Z,3.10
2019-05-20T12:50:01.623Z,4.30
2019-05-20T12:52:43.474Z,5.33
2019-05-20T12:55:25.669Z,5.30
2019-05-20T12:58:01.169Z,6.00
2019-05-20T13:00:42.816Z,4.20
2019-05-20T13:03:17.620Z,4.20
2019-05-20T13:05:59.227Z,4.87
2019-05-20T13:08:34.163Z,4.80
2019-05-20T13:11:16.086Z,4.63
2019-05-20T13:13:51.656Z,5.33
2019-05-20T13:16:33.792Z,5.67
2019-05-20T13:19:08.450Z,6.00
2019-05-20T13:21:49.757Z,8.13
2019-05-20T13:24:25.122Z,7.20
2019-05-20T13:27:07.035Z,10.30
2019-05-20T13:29:48.031Z,9.57
2019-05-20T13:32:35.987Z,12.67
2019-05-20T13:35:17.899Z,12.03
2019-05-20T13:38:06.329Z,12.50
2019-05-20T13:40:54.078Z,15.00
2019-05-20T13:43:35.666Z,13.83
2019-05-20T13:46:17.383Z,15.03
2019-05-20T13:48:52.085Z,15.23
2019-05-20T13:51:38.212Z,20.30
2019-05-20T13:54:10.767Z,25.57
2019-05-20T13:56:52.842Z,30.07
2019-05-20T13:59:27.720Z,34.40
2019-05-20T14:02:09.068Z,35.67
2019-05-20T14:04:44.681Z,35.83
2019-05-20T14:07:26.952Z,37.63
2019-05-20T14:10:02.762Z,32.97
2019-05-20T14:12:44.744Z,32.00
2019-05-20T14:15:20.201Z,33.97
2019-05-20T14:18:01.813Z,29.97
2019-05-20T14:20:37.270Z,30.83
2019-05-20T14:23:18.911Z,33.10
2019-05-20T14:26:14.500Z,27.80
2019-05-20T14:28:56.110Z,28.03
2019-05-20T14:31:44.382Z,29.83
2019-05-20T14:34:26.116Z,26.30
2019-05-20T14:37:14.376Z,28.67
2019-05-20T14:39:55.211Z,26.53
2019-05-20T14:42:43.846Z,27.50
2019-05-20T14:45:24.895Z,27.03
2019-05-20T14:48:06.898Z,27.37
2019-05-20T14:50:41.702Z,27.60
2019-05-20T14:53:23.286Z,26.17
2019-05-20T14:55:58.072Z,25.03
2019-05-20T14:58:39.761Z,25.70
2019-05-20T15:01:21.236Z,25.50
2019-05-20T15:03:56.884Z,23.07
2019-05-20T15:06:39.350Z,23.23
2019-05-20T15:09:14.011Z,25.30
2019-05-20T15:11:56.128Z,25.40
2019-05-20T15:14:31.852Z,22.80
2019-05-20T15:17:14.120Z,23.13
2019-05-20T15:19:48.908Z,20.73
2019-05-20T15:22:30.976Z,21.23
2019-05-20T15:25:05.753Z,19.73
2019-05-20T15:27:49.804Z,20.83
2019-05-20T15:30:37.676Z,19.53
2019-05-20T15:33:26.002Z,21.10
2019-05-20T15:36:07.539Z,18.97
2019-05-20T15:38:55.391Z,18.93
2019-05-20T15:41:43.231Z,19.80
2019-05-20T15:44:24.771Z,17.17
2019-05-20T15:47:06.182Z,17.10
2019-05-20T15:49:41.673Z,17.13
2019-05-20T15:52:23.617Z,19.50
2019-05-20T15:54:58.994Z,18.90
2019-05-20T15:57:40.572Z,18.20
2019-05-20T16:00:16.183Z,19.73
2019-05-20T16:02:58.089Z,19.53
2019-05-20T16:05:33.627Z,19.80
2019-05-20T16:08:14.959Z,19.90
2019-05-20T16:10:49.621Z,17.00
2019-05-20T16:13:31.611Z,19.67
2019-05-20T16:16:06.525Z,21.17
2019-05-20T16:18:48.379Z,22.80
2019-05-20T16:21:23.378Z,25.63
2019-05-20T16:24:05.289Z,27.00
2019-05-20T16:26:40.951Z,25.77
2019-05-20T16:29:22.913Z,26.70
2019-05-20T16:32:12.089Z,27.33
2019-05-20T16:34:53.762Z,24.60
2019-05-20T16:37:41.620Z,25.10
2019-05-20T16:40:25.283Z,26.07
2019-05-20T16:43:13.297Z,28.03
2019-05-20T16:45:48.809Z,25.33
2019-05-20T16:48:30.670Z,24.93
2019-05-20T16:51:06.146Z,25.80
2019-05-20T16:53:47.979Z,26.30
2019-05-20T16:56:23.019Z,26.53
2019-05-20T16:59:04.681Z,25.60
2019-05-20T17:01:46.167Z,24.90
2019-05-20T17:04:23.463Z,22.40
2019-05-20T17:07:05.705Z,24.50
2019-05-20T17:09:40.585Z,21.83
2019-05-20T17:12:22.262Z,24.10
2019-05-20T17:14:57.267Z,22.50
2019-05-20T17:17:38.772Z,23.87
2019-05-20T17:20:14.624Z,24.87
2019-05-20T17:22:56.583Z,24.23
2019-05-20T17:25:32.100Z,22.83
2019-05-20T17:28:13.935Z,22.87
2019-05-20T17:30:48.713Z,23.37
2019-05-20T17:33:36.816Z,25.50
2019-05-20T17:36:18.330Z,26.07
2019-05-20T17:39:07.457Z,24.70
2019-05-20T17:41:48.335Z,24.03
2019-05-20T17:44:36.510Z,19.67
2019-05-20T17:47:12.263Z,21.30
2019-05-20T17:49:54.203Z,12.93
2019-05-20T17:52:29.322Z,10.00
2019-05-20T17:55:11.098Z,11.27
2019-05-20T17:57:53.238Z,11.63
2019-05-20T18:00:28.246Z,11.53
2019-05-20T18:03:10.265Z,9.73
2019-05-20T18:05:45.111Z,10.10
2019-05-20T18:08:26.411Z,9.33
2019-05-20T18:11:02.092Z,8.97
2019-05-20T18:13:44.376Z,8.90
2019-05-20T18:16:19.239Z,8.33
2019-05-20T18:19:01.179Z,8.40
2019-05-20T18:21:37.036Z,8.30
2019-05-20T18:24:19.831Z,8.43
2019-05-20T18:26:55.274Z,7.87
2019-05-20T18:29:37.615Z,7.23
2019-05-20T18:32:13.240Z,7.53
2019-05-20T18:35:01.348Z,7.70
2019-05-20T18:37:42.953Z,8.20
2019-05-20T18:40:31.743Z,6.93
2019-05-20T18:43:07.367Z,6.87
2019-05-20T18:45:49.010Z,6.50
2019-05-20T18:48:30.394Z,6.60
2019-05-20T18:51:05.660Z,5.73
2019-05-20T18:53:47.444Z,5.90
2019-05-20T18:56:22.022Z,5.97
2019-05-20T18:59:03.763Z,5.53
2019-05-20T19:01:50.894Z,4.97
2019-05-20T19:04:23.301Z,5.60
2019-05-20T19:06:58.561Z,5.97
2019-05-20T19:09:40.354Z,5.00
2019-05-20T19:12:15.670Z,4.60
2019-05-20T19:14:57.496Z,6.40
2019-05-20T19:17:33.285Z,6.70
2019-05-20T19:20:15.117Z,7.07
2019-05-20T19:22:50.665Z,8.87
2019-05-20T19:25:37.637Z,8.20
2019-05-20T19:28:09.687Z,7.40
2019-05-20T19:30:51.148Z,6.80
2019-05-20T19:33:32.884Z,7.87
2019-05-20T19:36:14.525Z,8.27
2019-05-20T19:39:02.023Z,9.13
2019-05-20T19:41:37.572Z,8.20
2019-05-20T19:44:26.075Z,9.50
2019-05-20T19:47:00.961Z,11.20
2019-05-20T19:49:42.914Z,9.47
2019-05-20T19:52:17.842Z,7.03
2019-05-20T19:55:00.143Z,7.60
2019-05-20T19:57:35.253Z,8.23
2019-05-20T20:00:21.247Z,8.73
2019-05-20T20:02:56.190Z,11.33
2019-05-20T20:05:37.564Z,13.70
2019-05-20T20:08:12.036Z,16.43
2019-05-20T20:10:53.933Z,19.07
2019-05-20T20:13:28.636Z,19.90
2019-05-20T20:16:10.461Z,19.03
2019-05-20T20:18:46.220Z,22.00
2019-05-20T20:21:28.402Z,19.57
2019-05-20T20:24:03.759Z,15.60
2019-05-20T20:26:45.596Z,15.33
2019-05-20T20:29:22.388Z,12.30
2019-05-20T20:32:04.251Z,12.50
2019-05-20T20:34:46.433Z,12.00
2019-05-20T20:37:21.122Z,11.00
2019-05-20T20:40:03.393Z,10.20
2019-05-20T20:42:39.159Z,9.67
2019-05-20T20:45:27.826Z,10.37
2019-05-20T20:48:03.270Z,12.10
2019-05-20T20:50:45.144Z,10.20
2019-05-20T20:53:20.803Z,10.63
2019-05-20T20:56:02.631Z,9.50
2019-05-20T20:58:37.647Z,10.17
2019-05-20T21:01:19.413Z,10.20
2019-05-20T21:03:54.888Z,11.37
2019-05-20T21:06:36.962Z,11.10
2019-05-20T21:09:12.786Z,13.77
2019-05-20T21:11:54.571Z,14.77
2019-05-20T21:14:30.295Z,13.30
2019-05-20T21:17:12.178Z,10.40
2019-05-20T21:19:47.691Z,9.50
2019-05-20T21:22:29.491Z,6.97
2019-05-20T21:25:11.208Z,5.50
2019-05-20T21:27:46.103Z,6.60
2019-05-20T21:30:28.367Z,7.77
2019-05-20T21:33:09.154Z,9.33
2019-05-20T21:35:46.824Z,9.93
2019-05-20T21:38:28.455Z,13.77
2019-05-20T21:41:16.611Z,10.97
2019-05-20T21:43:57.981Z,14.00
2019-05-20T21:46:39.751Z,12.00
2019-05-20T21:49:14.624Z,10.30
2019-05-20T21:51:56.417Z,10.60
2019-05-20T21:54:32.031Z,8.80
2019-05-20T21:57:14.169Z,11.27
2019-05-20T21:59:49.081Z,10.00
2019-05-20T22:02:31.067Z,7.47
2019-05-20T22:05:13.321Z,9.10
2019-05-20T22:07:49.997Z,8.73
2019-05-20T22:10:33.600Z,7.70
2019-05-20T22:13:02.113Z,7.37
2019-05-20T22:15:37.300Z,6.37
2019-05-20T22:18:05.930Z,5.50
2019-05-20T22:20:41.260Z,3.67
2019-05-20T22:23:11.480Z,3.50
2019-05-20T22:25:47.244Z,3.17
2019-05-20T22:28:15.799Z,2.20
2019-05-20T22:30:55.192Z,2.30
2019-05-20T22:33:41.399Z,2.40
2019-05-20T22:36:17.664Z,2.10
2019-05-20T22:38:59.275Z,2.17
2019-05-20T22:41:47.358Z,2.60
2019-05-20T22:44:28.323Z,3.63
2019-05-20T22:47:20.156Z,4.00
2019-05-20T22:49:56.298Z,4.30
2019-05-20T22:52:38.081Z,4.70
2019-05-20T22:55:13.230Z,4.17
2019-05-20T22:57:55.051Z,3.33
2019-05-20T23:00:30.642Z,4.20
2019-05-20T23:03:12.411Z,3.70
2019-05-20T23:05:55.032Z,4.13
2019-05-20T23:08:30.333Z,4.30
2019-05-20T23:11:12.339Z,3.40
2019-05-20T23:13:47.995Z,5.10
2019-05-20T23:16:29.607Z,5.00
2019-05-20T23:19:04.307Z,6.10
2019-05-20T23:21:45.796Z,5.63
2019-05-20T23:24:20.564Z,5.40
2019-05-20T23:27:02.105Z,4.40
2019-05-20T23:29:37.502Z,3.60
2019-05-20T23:32:19.133Z,3.00
2019-05-20T23:34:53.767Z,3.27
2019-05-20T23:37:35.467Z,2.70
2019-05-20T23:40:17.269Z,2.17
2019-05-20T23:42:59.151Z,2.37
2019-05-20T23:45:33.850Z,2.17
2019-05-20T23:48:14.939Z,2.13
2019-05-20T23:50:50.520Z,3.27
2019-05-20T23:53:32.363Z,2.77
2019-05-20T23:56:14.603Z,2.93
2019-05-20T23:58:49.907Z,2.80
